sensor_id;sensor_type;location;lat;lon;timestamp;pressure;altitude;pressure_sealevel;temperature;humidity
56241;BME280;42155;53.096;23.226;2024-03-06T00:01:33;100455.50;;;4.84;80.46
56241;BME280;42155;53.096;23.226;2024-03-06T00:03:33;100464.34;;;4.83;80.67
56241;BME280;42155;53.096;23.226;2024-03-06T00:05:34;100457.91;;;4.89;80.29
56241;BME280;42155;53.096;23.226;2024-03-06T00:07:34;100459.47;;;4.93;80.76
56241;BME280;42155;53.096;23.226;2024-03-06T00:09:34;100458.84;;;4.88;79.84
56241;BME280;42155;53.096;23.226;2024-03-06T00:11:35;100466.75;;;4.88;80.51
56241;BME280;42155;53.096;23.226;2024-03-06T00:13:35;100449.84;;;4.75;80.16
56241;BME280;42155;53.096;23.226;2024-03-06T00:15:35;100453.09;;;4.80;80.65
56241;BME280;42155;53.096;23.226;2024-03-06T00:17:36;100437.09;;;4.67;80.63
56241;BME280;42155;53.096;23.226;2024-03-06T00:19:36;100448.25;;;4.72;80.59
56241;BME280;42155;53.096;23.226;2024-03-06T00:21:36;100456.81;;;4.76;80.70
56241;BME280;42155;53.096;23.226;2024-03-06T00:23:37;100437.72;;;4.72;80.22
56241;BME280;42155;53.096;23.226;2024-03-06T00:25:37;100457.53;;;4.79;80.10
56241;BME280;42155;53.096;23.226;2024-03-06T00:27:38;100459.16;;;4.82;80.06
56241;BME280;42155;53.096;23.226;2024-03-06T00:29:38;100456.81;;;4.76;80.00
56241;BME280;42155;53.096;23.226;2024-03-06T00:31:45;100437.38;;;4.61;79.91
56241;BME280;42155;53.096;23.226;2024-03-06T00:33:46;100455.56;;;4.66;80.03
56241;BME280;42155;53.096;23.226;2024-03-06T00:35:46;100460.69;;;4.69;80.22
56241;BME280;42155;53.096;23.226;2024-03-06T00:37:46;100464.25;;;4.68;79.52
56241;BME280;42155;53.096;23.226;2024-03-06T00:39:47;100459.56;;;4.55;79.86
56241;BME280;42155;53.096;23.226;2024-03-06T00:41:47;100463.47;;;4.47;79.59
56241;BME280;42155;53.096;23.226;2024-03-06T00:43:47;100460.00;;;4.46;80.16
56241;BME280;42155;53.096;23.226;2024-03-06T00:45:47;100454.25;;;4.38;79.85
56241;BME280;42155;53.096;23.226;2024-03-06T00:47:48;100467.78;;;4.48;79.41
56241;BME280;42155;53.096;23.226;2024-03-06T00:49:48;100469.75;;;4.44;79.57
56241;BME280;42155;53.096;23.226;2024-03-06T00:51:49;100454.31;;;4.37;79.03
56241;BME280;42155;53.096;23.226;2024-03-06T00:53:49;100464.13;;;4.33;78.81
56241;BME280;42155;53.096;23.226;2024-03-06T00:55:49;100415.69;;;4.01;79.03
56241;BME280;42155;53.096;23.226;2024-03-06T00:57:50;100473.13;;;4.27;79.06
56241;BME280;42155;53.096;23.226;2024-03-06T00:59:50;100461.16;;;4.22;78.70
56241;BME280;42155;53.096;23.226;2024-03-06T01:01:50;100471.78;;;4.19;78.64
56241;BME280;42155;53.096;23.226;2024-03-06T01:03:51;100458.31;;;4.07;78.60
56241;BME280;42155;53.096;23.226;2024-03-06T01:05:51;100444.03;;;3.94;78.70
56241;BME280;42155;53.096;23.226;2024-03-06T01:07:51;100453.72;;;3.92;78.77
56241;BME280;42155;53.096;23.226;2024-03-06T01:09:52;100486.41;;;4.05;78.62
56241;BME280;42155;53.096;23.226;2024-03-06T01:11:52;100466.31;;;4.04;77.94
56241;BME280;42155;53.096;23.226;2024-03-06T01:13:53;100461.41;;;3.97;78.21
56241;BME280;42155;53.096;23.226;2024-03-06T01:15:53;100448.69;;;3.88;78.02
56241;BME280;42155;53.096;23.226;2024-03-06T01:17:54;100459.13;;;3.89;77.81
56241;BME280;42155;53.096;23.226;2024-03-06T01:19:54;100473.03;;;3.91;77.33
56241;BME280;42155;53.096;23.226;2024-03-06T01:21:54;100466.38;;;3.84;77.26
56241;BME280;42155;53.096;23.226;2024-03-06T01:23:55;100474.03;;;3.89;77.92
56241;BME280;42155;53.096;23.226;2024-03-06T01:25:55;100444.03;;;3.74;77.30
56241;BME280;42155;53.096;23.226;2024-03-06T01:27:55;100473.03;;;3.91;77.36
56241;BME280;42155;53.096;23.226;2024-03-06T01:29:56;100480.13;;;3.89;76.72
56241;BME280;42155;53.096;23.226;2024-03-06T01:31:56;100473.31;;;3.85;76.71
56241;BME280;42155;53.096;23.226;2024-03-06T01:33:57;100443.41;;;3.69;76.77
56241;BME280;42155;53.096;23.226;2024-03-06T01:35:57;100455.88;;;3.84;77.05
56241;BME280;42155;53.096;23.226;2024-03-06T01:37:57;100471.47;;;3.87;76.45
56241;BME280;42155;53.096;23.226;2024-03-06T01:39:58;100467.34;;;3.81;76.82
56241;BME280;42155;53.096;23.226;2024-03-06T01:41:58;100466.38;;;3.84;76.39
56241;BME280;42155;53.096;23.226;2024-03-06T01:43:58;100467.13;;;3.86;76.71
56241;BME280;42155;53.096;23.226;2024-03-06T01:45:59;100464.63;;;3.83;76.58
56241;BME280;42155;53.096;23.226;2024-03-06T01:47:59;100440.00;;;3.67;76.21
56241;BME280;42155;53.096;23.226;2024-03-06T01:49:59;100455.16;;;3.80;76.33
56241;BME280;42155;53.096;23.226;2024-03-06T01:52:00;100450.16;;;3.74;76.00
56241;BME280;42155;53.096;23.226;2024-03-06T01:54:03;100393.06;;;3.40;76.08
56241;BME280;42155;53.096;23.226;2024-03-06T01:56:04;100469.69;;;3.88;75.61
56241;BME280;42155;53.096;23.226;2024-03-06T01:58:05;100468.31;;;3.79;75.48
56241;BME280;42155;53.096;23.226;2024-03-06T02:00:07;100453.25;;;3.64;75.45
56241;BME280;42155;53.096;23.226;2024-03-06T02:02:08;100458.38;;;3.67;75.08
56241;BME280;42155;53.096;23.226;2024-03-06T02:04:09;100439.75;;;3.52;75.07
56241;BME280;42155;53.096;23.226;2024-03-06T02:06:10;100485.06;;;3.76;75.09
56241;BME280;42155;53.096;23.226;2024-03-06T02:08:10;100488.63;;;3.75;75.33
56241;BME280;42155;53.096;23.226;2024-03-06T02:10:11;100461.94;;;3.66;75.50
56241;BME280;42155;53.096;23.226;2024-03-06T02:12:12;100490.25;;;3.78;75.32
56241;BME280;42155;53.096;23.226;2024-03-06T02:14:13;100493.88;;;3.75;75.43
56241;BME280;42155;53.096;23.226;2024-03-06T02:16:13;100491.28;;;3.74;75.30
56241;BME280;42155;53.096;23.226;2024-03-06T02:18:14;100497.47;;;3.73;74.66
56241;BME280;42155;53.096;23.226;2024-03-06T02:20:14;100505.63;;;3.67;75.29
56241;BME280;42155;53.096;23.226;2024-03-06T02:22:15;100503.78;;;3.69;74.99
56241;BME280;42155;53.096;23.226;2024-03-06T02:24:15;100516.97;;;3.67;75.39
56241;BME280;42155;53.096;23.226;2024-03-06T02:26:16;100507.44;;;3.65;74.86
56241;BME280;42155;53.096;23.226;2024-03-06T02:28:16;100476.16;;;3.40;74.96
56241;BME280;42155;53.096;23.226;2024-03-06T02:30:19;100519.13;;;3.57;75.24
56241;BME280;42155;53.096;23.226;2024-03-06T02:32:20;100514.22;;;3.50;75.45
56241;BME280;42155;53.096;23.226;2024-03-06T02:34:20;100484.69;;;3.24;75.22
56241;BME280;42155;53.096;23.226;2024-03-06T02:36:20;100520.47;;;3.47;75.31
56241;BME280;42155;53.096;23.226;2024-03-06T02:38:21;100514.47;;;3.44;75.54
56241;BME280;42155;53.096;23.226;2024-03-06T02:40:21;100517.84;;;3.47;75.11
56241;BME280;42155;53.096;23.226;2024-03-06T02:42:21;100524.84;;;3.47;75.14
56241;BME280;42155;53.096;23.226;2024-03-06T02:44:22;100524.25;;;3.40;74.58
56241;BME280;42155;53.096;23.226;2024-03-06T02:46:22;100526.31;;;3.32;74.92
56241;BME280;42155;53.096;23.226;2024-03-06T02:48:22;100519.50;;;3.28;74.88
56241;BME280;42155;53.096;23.226;2024-03-06T02:50:23;100536.97;;;3.29;74.79
56241;BME280;42155;53.096;23.226;2024-03-06T02:52:23;100530.97;;;3.25;74.93
56241;BME280;42155;53.096;23.226;2024-03-06T02:54:23;100508.78;;;3.12;75.11
56241;BME280;42155;53.096;23.226;2024-03-06T02:56:24;100526.00;;;3.19;75.12
56241;BME280;42155;53.096;23.226;2024-03-06T02:58:24;100499.28;;;3.10;75.02
56241;BME280;42155;53.096;23.226;2024-03-06T03:00:24;100523.41;;;3.18;75.57
56241;BME280;42155;53.096;23.226;2024-03-06T03:02:25;100528.75;;;3.16;74.97
56241;BME280;42155;53.096;23.226;2024-03-06T03:04:25;100542.69;;;3.17;74.65
56241;BME280;42155;53.096;23.226;2024-03-06T03:06:26;100526.56;;;3.05;75.29
56241;BME280;42155;53.096;23.226;2024-03-06T03:08:26;100519.06;;;2.96;74.80
56241;BME280;42155;53.096;23.226;2024-03-06T03:10:26;100543.19;;;3.04;74.45
56241;BME280;42155;53.096;23.226;2024-03-06T03:12:27;100539.91;;;2.99;74.44
56241;BME280;42155;53.096;23.226;2024-03-06T03:14:27;100544.44;;;2.96;74.74
56241;BME280;42155;53.096;23.226;2024-03-06T03:16:27;100540.25;;;2.90;74.39
56241;BME280;42155;53.096;23.226;2024-03-06T03:18:28;100517.94;;;2.80;74.31
56241;BME280;42155;53.096;23.226;2024-03-06T03:20:28;100535.28;;;2.84;74.09
56241;BME280;42155;53.096;23.226;2024-03-06T03:22:28;100550.25;;;2.80;74.46
56241;BME280;42155;53.096;23.226;2024-03-06T03:24:29;100550.44;;;2.76;73.91
56241;BME280;42155;53.096;23.226;2024-03-06T03:26:29;100549.75;;;2.71;74.47
56241;BME280;42155;53.096;23.226;2024-03-06T03:28:29;100552.31;;;2.72;74.00
56241;BME280;42155;53.096;23.226;2024-03-06T03:30:30;100551.63;;;2.67;73.78
56241;BME280;42155;53.096;23.226;2024-03-06T03:32:30;100561.22;;;2.68;74.08
56241;BME280;42155;53.096;23.226;2024-03-06T03:34:31;100553.66;;;2.61;73.71
56241;BME280;42155;53.096;23.226;2024-03-06T03:36:31;100548.59;;;2.56;74.06
56241;BME280;42155;53.096;23.226;2024-03-06T03:38:31;100566.88;;;2.58;74.00
56241;BME280;42155;53.096;23.226;2024-03-06T03:40:32;100561.78;;;2.53;73.18
56241;BME280;42155;53.096;23.226;2024-03-06T03:42:32;100560.16;;;2.50;73.31
56241;BME280;42155;53.096;23.226;2024-03-06T03:44:32;100550.91;;;2.40;73.62
56241;BME280;42155;53.096;23.226;2024-03-06T03:46:33;100569.09;;;2.45;73.60
56241;BME280;42155;53.096;23.226;2024-03-06T03:48:33;100571.78;;;2.43;73.22
56241;BME280;42155;53.096;23.226;2024-03-06T03:50:33;100560.03;;;2.30;73.10
56241;BME280;42155;53.096;23.226;2024-03-06T03:52:34;100568.56;;;2.35;73.14
56241;BME280;42155;53.096;23.226;2024-03-06T03:54:34;100577.56;;;2.28;73.05
56241;BME280;42155;53.096;23.226;2024-03-06T03:56:35;100562.19;;;2.19;72.63
56241;BME280;42155;53.096;23.226;2024-03-06T03:58:35;100570.22;;;2.14;72.49
56241;BME280;42155;53.096;23.226;2024-03-06T04:00:35;100567.66;;;2.13;72.92
56241;BME280;42155;53.096;23.226;2024-03-06T04:02:37;100582.56;;;2.11;72.80
56241;BME280;42155;53.096;23.226;2024-03-06T04:04:37;100569.78;;;2.01;72.49
56241;BME280;42155;53.096;23.226;2024-03-06T04:06:37;100584.50;;;2.06;72.55
56241;BME280;42155;53.096;23.226;2024-03-06T04:08:38;100585.50;;;2.01;72.12
56241;BME280;42155;53.096;23.226;2024-03-06T04:10:38;100585.81;;;1.92;72.53
56241;BME280;42155;53.096;23.226;2024-03-06T04:12:38;100580.81;;;1.86;72.85
56241;BME280;42155;53.096;23.226;2024-03-06T04:14:39;100594.09;;;1.80;72.25
56241;BME280;42155;53.096;23.226;2024-03-06T04:16:39;100587.38;;;1.73;72.82
56241;BME280;42155;53.096;23.226;2024-03-06T04:18:39;100579.94;;;1.61;72.47
56241;BME280;42155;53.096;23.226;2024-03-06T04:20:40;100603.06;;;1.73;72.81
56241;BME280;42155;53.096;23.226;2024-03-06T04:22:40;100598.06;;;1.67;73.09
56241;BME280;42155;53.096;23.226;2024-03-06T04:24:41;100597.25;;;1.65;72.98
56241;BME280;42155;53.096;23.226;2024-03-06T04:26:41;100594.06;;;1.55;72.56
56241;BME280;42155;53.096;23.226;2024-03-06T04:28:42;100597.59;;;1.54;73.16
56241;BME280;42155;53.096;23.226;2024-03-06T04:30:42;100589.09;;;1.47;73.09
56241;BME280;42155;53.096;23.226;2024-03-06T04:32:43;100600.38;;;1.49;72.72
56241;BME280;42155;53.096;23.226;2024-03-06T04:34:43;100593.03;;;1.34;72.87
56241;BME280;42155;53.096;23.226;2024-03-06T04:36:43;100612.78;;;1.43;72.92
56241;BME280;42155;53.096;23.226;2024-03-06T04:38:44;100606.81;;;1.39;73.72
56241;BME280;42155;53.096;23.226;2024-03-06T04:40:44;100612.91;;;1.40;73.53
56241;BME280;42155;53.096;23.226;2024-03-06T04:42:47;100604.28;;;1.36;73.57
56241;BME280;42155;53.096;23.226;2024-03-06T04:44:48;100607.84;;;1.34;73.18
56241;BME280;42155;53.096;23.226;2024-03-06T04:46:51;100617.66;;;1.27;73.59
56241;BME280;42155;53.096;23.226;2024-03-06T04:48:51;100613.38;;;1.24;73.65
56241;BME280;42155;53.096;23.226;2024-03-06T04:50:51;100627.25;;;1.26;73.91
56241;BME280;42155;53.096;23.226;2024-03-06T04:52:52;100618.66;;;1.23;73.17
56241;BME280;42155;53.096;23.226;2024-03-06T04:54:52;100625.00;;;1.16;73.84
56241;BME280;42155;53.096;23.226;2024-03-06T04:56:52;100597.59;;;0.99;73.63
56241;BME280;42155;53.096;23.226;2024-03-06T04:58:53;100593.38;;;0.95;74.14
56241;BME280;42155;53.096;23.226;2024-03-06T05:00:53;100621.06;;;1.01;74.15
56241;BME280;42155;53.096;23.226;2024-03-06T05:02:53;100624.78;;;0.94;73.91
56241;BME280;42155;53.096;23.226;2024-03-06T05:04:54;100628.34;;;0.91;74.17
56241;BME280;42155;53.096;23.226;2024-03-06T05:06:54;100628.53;;;0.85;74.82
56241;BME280;42155;53.096;23.226;2024-03-06T05:08:54;100627.63;;;0.86;74.18
56241;BME280;42155;53.096;23.226;2024-03-06T05:10:55;100634.66;;;0.84;74.41
56241;BME280;42155;53.096;23.226;2024-03-06T05:12:55;100632.03;;;0.84;74.44
56241;BME280;42155;53.096;23.226;2024-03-06T05:14:55;100638.06;;;0.86;74.90
56241;BME280;42155;53.096;23.226;2024-03-06T05:16:56;100557.53;;;0.41;74.32
56241;BME280;42155;53.096;23.226;2024-03-06T05:18:56;100635.53;;;0.83;74.33
56241;BME280;42155;53.096;23.226;2024-03-06T05:20:56;100641.88;;;0.76;74.10
56241;BME280;42155;53.096;23.226;2024-03-06T05:22:57;100647.84;;;0.80;74.17
56241;BME280;42155;53.096;23.226;2024-03-06T05:24:57;100621.31;;;0.64;74.66
56241;BME280;42155;53.096;23.226;2024-03-06T05:26:58;100652.31;;;0.76;74.90
56241;BME280;42155;53.096;23.226;2024-03-06T05:28:58;100632.34;;;0.73;74.86
56241;BME280;42155;53.096;23.226;2024-03-06T05:30:59;100641.66;;;0.82;74.23
56241;BME280;42155;53.096;23.226;2024-03-06T05:32:59;100641.31;;;0.94;74.42
56241;BME280;42155;53.096;23.226;2024-03-06T05:35:00;100651.50;;;1.04;74.27
56241;BME280;42155;53.096;23.226;2024-03-06T05:37:00;100668.41;;;1.20;74.27
56241;BME280;42155;53.096;23.226;2024-03-06T05:39:01;100625.16;;;1.10;74.62
56241;BME280;42155;53.096;23.226;2024-03-06T05:41:01;100665.09;;;1.43;73.75
56241;BME280;42155;53.096;23.226;2024-03-06T05:43:01;100665.47;;;1.59;73.95
56241;BME280;42155;53.096;23.226;2024-03-06T05:45:02;100611.44;;;1.31;72.81
56241;BME280;42155;53.096;23.226;2024-03-06T05:47:02;100667.09;;;1.63;73.20
56241;BME280;42155;53.096;23.226;2024-03-06T05:49:03;100675.22;;;1.80;72.98
56241;BME280;42155;53.096;23.226;2024-03-06T05:51:03;100670.59;;;1.88;72.87
56241;BME280;42155;53.096;23.226;2024-03-06T05:53:05;100668.88;;;2.14;72.14
56241;BME280;42155;53.096;23.226;2024-03-06T05:55:06;100639.38;;;2.80;70.88
56241;BME280;42155;53.096;23.226;2024-03-06T05:57:06;100665.50;;;4.34;67.39
56241;BME280;42155;53.096;23.226;2024-03-06T05:59:07;100644.25;;;6.07;63.76
56241;BME280;42155;53.096;23.226;2024-03-06T06:01:07;100655.97;;;7.94;60.00
56241;BME280;42155;53.096;23.226;2024-03-06T06:03:08;100647.44;;;9.60;56.87
56241;BME280;42155;53.096;23.226;2024-03-06T06:05:08;100640.06;;;10.94;53.45
56241;BME280;42155;53.096;23.226;2024-03-06T06:07:08;100648.28;;;11.65;51.39
56241;BME280;42155;53.096;23.226;2024-03-06T06:09:09;100656.41;;;12.45;49.78
56241;BME280;42155;53.096;23.226;2024-03-06T06:11:10;100623.25;;;13.28;47.71
56241;BME280;42155;53.096;23.226;2024-03-06T06:13:10;100620.25;;;13.85;46.56
56241;BME280;42155;53.096;23.226;2024-03-06T06:15:10;100645.22;;;14.58;45.04
56241;BME280;42155;53.096;23.226;2024-03-06T06:17:11;100639.31;;;15.25;43.82
56241;BME280;42155;53.096;23.226;2024-03-06T06:19:12;100636.13;;;15.61;42.62
56241;BME280;42155;53.096;23.226;2024-03-06T06:21:12;100636.72;;;16.03;41.32
56241;BME280;42155;53.096;23.226;2024-03-06T06:23:12;100639.66;;;16.39;41.43
56241;BME280;42155;53.096;23.226;2024-03-06T06:25:13;100647.44;;;16.22;40.72
56241;BME280;42155;53.096;23.226;2024-03-06T06:27:13;100627.50;;;15.28;42.23
56241;BME280;42155;53.096;23.226;2024-03-06T06:29:14;100654.78;;;14.19;44.40
56241;BME280;42155;53.096;23.226;2024-03-06T06:31:14;100661.16;;;12.75;47.14
56241;BME280;42155;53.096;23.226;2024-03-06T06:33:14;100665.97;;;11.53;48.38
56241;BME280;42155;53.096;23.226;2024-03-06T06:35:15;100682.91;;;10.26;50.98
56241;BME280;42155;53.096;23.226;2024-03-06T06:37:15;100672.84;;;9.50;51.82
56241;BME280;42155;53.096;23.226;2024-03-06T06:39:15;100675.78;;;8.61;53.06
56241;BME280;42155;53.096;23.226;2024-03-06T06:41:17;100673.88;;;7.89;54.29
56241;BME280;42155;53.096;23.226;2024-03-06T06:43:17;100677.34;;;7.59;54.82
56241;BME280;42155;53.096;23.226;2024-03-06T06:45:20;100688.69;;;7.30;55.67
56241;BME280;42155;53.096;23.226;2024-03-06T06:47:20;100686.28;;;7.09;55.53
56241;BME280;42155;53.096;23.226;2024-03-06T06:49:20;100684.88;;;6.71;56.30
56241;BME280;42155;53.096;23.226;2024-03-06T06:51:21;100683.69;;;6.43;56.10
56241;BME280;42155;53.096;23.226;2024-03-06T06:53:21;100677.56;;;6.08;56.83
56241;BME280;42155;53.096;23.226;2024-03-06T06:55:22;100680.19;;;5.72;57.60
56241;BME280;42155;53.096;23.226;2024-03-06T06:57:22;100690.72;;;5.72;57.93
56241;BME280;42155;53.096;23.226;2024-03-06T06:59:22;100700.56;;;5.68;58.13
56241;BME280;42155;53.096;23.226;2024-03-06T07:01:23;100692.88;;;5.63;58.27
56241;BME280;42155;53.096;23.226;2024-03-06T07:03:23;100687.72;;;5.43;58.11
56241;BME280;42155;53.096;23.226;2024-03-06T07:05:23;100702.38;;;5.49;57.95
56241;BME280;42155;53.096;23.226;2024-03-06T07:07:24;100688.94;;;5.36;58.20
56241;BME280;42155;53.096;23.226;2024-03-06T07:09:24;100703.81;;;5.37;58.39
56241;BME280;42155;53.096;23.226;2024-03-06T07:11:24;100692.78;;;5.48;58.43
56241;BME280;42155;53.096;23.226;2024-03-06T07:13:25;100716.78;;;5.59;58.39
56241;BME280;42155;53.096;23.226;2024-03-06T07:15:25;100703.72;;;5.57;57.85
56241;BME280;42155;53.096;23.226;2024-03-06T07:17:25;100704.81;;;5.71;58.39
56241;BME280;42155;53.096;23.226;2024-03-06T07:19:26;100706.66;;;5.87;57.72
56241;BME280;42155;53.096;23.226;2024-03-06T07:21:26;100704.13;;;6.03;57.31
56241;BME280;42155;53.096;23.226;2024-03-06T07:23:27;100719.75;;;5.89;57.52
56241;BME280;42155;53.096;23.226;2024-03-06T07:25:27;100706.69;;;5.69;57.97
56241;BME280;42155;53.096;23.226;2024-03-06T07:27:27;100714.50;;;5.70;58.15
56241;BME280;42155;53.096;23.226;2024-03-06T07:29:28;100718.63;;;5.76;58.38
56241;BME280;42155;53.096;23.226;2024-03-06T07:31:28;100718.50;;;5.79;58.00
56241;BME280;42155;53.096;23.226;2024-03-06T07:33:31;100725.75;;;5.93;57.80
56241;BME280;42155;53.096;23.226;2024-03-06T07:35:31;100702.25;;;5.88;57.52
56241;BME280;42155;53.096;23.226;2024-03-06T07:37:32;100709.34;;;5.86;57.80
56241;BME280;42155;53.096;23.226;2024-03-06T07:39:32;100718.03;;;5.88;57.88
56241;BME280;42155;53.096;23.226;2024-03-06T07:41:33;100723.75;;;5.98;57.86
56241;BME280;42155;53.096;23.226;2024-03-06T07:43:33;100723.34;;;6.05;57.81
56241;BME280;42155;53.096;23.226;2024-03-06T07:45:33;100727.16;;;5.81;57.75
56241;BME280;42155;53.096;23.226;2024-03-06T07:47:33;100723.78;;;5.60;58.22
56241;BME280;42155;53.096;23.226;2024-03-06T07:49:34;100711.13;;;5.49;58.39
56241;BME280;42155;53.096;23.226;2024-03-06T07:51:34;100729.09;;;5.58;58.64
56241;BME280;42155;53.096;23.226;2024-03-06T07:53:35;100727.38;;;5.76;58.50
56241;BME280;42155;53.096;23.226;2024-03-06T07:55:35;100691.97;;;5.65;58.00
56241;BME280;42155;53.096;23.226;2024-03-06T07:57:35;100726.47;;;5.96;58.00
56241;BME280;42155;53.096;23.226;2024-03-06T07:59:36;100708.66;;;6.01;57.61
56241;BME280;42155;53.096;23.226;2024-03-06T08:01:36;100728.94;;;6.17;57.23
56241;BME280;42155;53.096;23.226;2024-03-06T08:03:38;100736.06;;;6.15;57.37
56241;BME280;42155;53.096;23.226;2024-03-06T08:05:39;100739.63;;;6.13;57.71
56241;BME280;42155;53.096;23.226;2024-03-06T08:07:39;100731.09;;;6.08;57.78
56241;BME280;42155;53.096;23.226;2024-03-06T08:09:40;100741.97;;;6.20;57.92
56241;BME280;42155;53.096;23.226;2024-03-06T08:11:40;100735.66;;;6.05;57.64
56241;BME280;42155;53.096;23.226;2024-03-06T08:13:41;100736.53;;;6.23;57.96
56241;BME280;42155;53.096;23.226;2024-03-06T08:15:41;100730.19;;;6.27;57.38
56241;BME280;42155;53.096;23.226;2024-03-06T08:17:42;100742.44;;;6.62;56.92
56241;BME280;42155;53.096;23.226;2024-03-06T08:19:43;100734.38;;;6.48;57.05
56241;BME280;42155;53.096;23.226;2024-03-06T08:21:43;100740.28;;;6.53;57.55
56241;BME280;42155;53.096;23.226;2024-03-06T08:23:44;100742.59;;;6.59;57.55
56241;BME280;42155;53.096;23.226;2024-03-06T08:25:44;100720.13;;;6.52;56.90
56241;BME280;42155;53.096;23.226;2024-03-06T08:27:44;100749.03;;;6.71;56.66
56241;BME280;42155;53.096;23.226;2024-03-06T08:29:45;100742.09;;;6.69;56.71
56241;BME280;42155;53.096;23.226;2024-03-06T08:31:45;100735.91;;;6.70;56.72
56241;BME280;42155;53.096;23.226;2024-03-06T08:33:45;100737.91;;;6.82;56.62
56241;BME280;42155;53.096;23.226;2024-03-06T08:35:46;100742.72;;;6.74;56.57
56241;BME280;42155;53.096;23.226;2024-03-06T08:37:46;100743.69;;;6.88;56.63
56241;BME280;42155;53.096;23.226;2024-03-06T08:39:46;100754.34;;;6.87;56.18
56241;BME280;42155;53.096;23.226;2024-03-06T08:41:47;100734.63;;;6.94;56.63
56241;BME280;42155;53.096;23.226;2024-03-06T08:43:47;100732.31;;;7.21;55.89
56241;BME280;42155;53.096;23.226;2024-03-06T08:45:47;100726.09;;;7.22;56.26
56241;BME280;42155;53.096;23.226;2024-03-06T08:47:48;100747.22;;;7.38;55.14
56241;BME280;42155;53.096;23.226;2024-03-06T08:49:48;100746.84;;;7.12;55.41
56241;BME280;42155;53.096;23.226;2024-03-06T08:51:48;100762.50;;;6.82;55.29
56241;BME280;42155;53.096;23.226;2024-03-06T08:53:49;100759.09;;;6.80;55.75
56241;BME280;42155;53.096;23.226;2024-03-06T08:55:49;100745.13;;;6.78;55.18
56241;BME280;42155;53.096;23.226;2024-03-06T08:57:49;100753.22;;;6.75;55.23
56241;BME280;42155;53.096;23.226;2024-03-06T08:59:50;100767.06;;;6.79;55.07
56241;BME280;42155;53.096;23.226;2024-03-06T09:01:53;100762.66;;;6.79;55.54
56241;BME280;42155;53.096;23.226;2024-03-06T09:03:54;100762.72;;;6.95;55.91
56241;BME280;42155;53.096;23.226;2024-03-06T09:05:54;100764.72;;;7.07;55.26
56241;BME280;42155;53.096;23.226;2024-03-06T09:07:55;100751.88;;;7.17;55.14
56241;BME280;42155;53.096;23.226;2024-03-06T09:09:55;100725.72;;;7.12;55.25
56241;BME280;42155;53.096;23.226;2024-03-06T09:11:55;100757.31;;;7.30;54.53
56241;BME280;42155;53.096;23.226;2024-03-06T09:13:56;100759.81;;;7.33;55.10
56241;BME280;42155;53.096;23.226;2024-03-06T09:15:56;100761.19;;;7.40;54.27
56241;BME280;42155;53.096;23.226;2024-03-06T09:17:56;100749.34;;;7.31;55.14
56241;BME280;42155;53.096;23.226;2024-03-06T09:19:57;100762.31;;;7.36;54.48
56241;BME280;42155;53.096;23.226;2024-03-06T09:21:57;100764.88;;;7.04;54.84
56241;BME280;42155;53.096;23.226;2024-03-06T09:23:57;100776.25;;;6.89;54.91
56241;BME280;42155;53.096;23.226;2024-03-06T09:25:58;100773.94;;;6.66;54.80
56241;BME280;42155;53.096;23.226;2024-03-06T09:27:58;100738.09;;;6.44;55.31
56241;BME280;42155;53.096;23.226;2024-03-06T09:29:59;100789.44;;;6.72;54.49
56241;BME280;42155;53.096;23.226;2024-03-06T09:31:59;100768.34;;;6.72;53.90
56241;BME280;42155;53.096;23.226;2024-03-06T09:33:59;100782.63;;;6.68;54.22
56241;BME280;42155;53.096;23.226;2024-03-06T09:36:00;100771.69;;;6.58;53.91
56241;BME280;42155;53.096;23.226;2024-03-06T09:38:00;100782.69;;;6.66;54.38
56241;BME280;42155;53.096;23.226;2024-03-06T09:40:00;100780.72;;;6.87;54.91
56241;BME280;42155;53.096;23.226;2024-03-06T09:42:01;100787.84;;;7.02;54.42
56241;BME280;42155;53.096;23.226;2024-03-06T09:44:02;100720.19;;;6.51;53.78
56241;BME280;42155;53.096;23.226;2024-03-06T09:46:02;100784.16;;;6.72;54.02
56241;BME280;42155;53.096;23.226;2024-03-06T09:48:03;100783.13;;;6.74;53.77
56241;BME280;42155;53.096;23.226;2024-03-06T09:50:04;100746.00;;;6.61;53.96
56241;BME280;42155;53.096;23.226;2024-03-06T09:52:08;100775.31;;;6.73;54.36
56241;BME280;42155;53.096;23.226;2024-03-06T09:54:11;100798.59;;;6.82;54.21
56241;BME280;42155;53.096;23.226;2024-03-06T09:56:12;100737.50;;;6.56;54.09
56241;BME280;42155;53.096;23.226;2024-03-06T09:58:12;100791.75;;;6.95;54.22
56241;BME280;42155;53.096;23.226;2024-03-06T10:00:13;100788.00;;;6.99;54.40
56241;BME280;42155;53.096;23.226;2024-03-06T10:02:28;100795.31;;;6.94;53.33
56241;BME280;42155;53.096;23.226;2024-03-06T10:04:32;100774.47;;;6.72;53.96
56241;BME280;42155;53.096;23.226;2024-03-06T10:06:33;100804.00;;;6.96;53.47
56241;BME280;42155;53.096;23.226;2024-03-06T10:08:34;100799.63;;;7.12;53.44
56241;BME280;42155;53.096;23.226;2024-03-06T10:10:35;100810.91;;;7.32;52.95
56241;BME280;42155;53.096;23.226;2024-03-06T10:12:35;100806.13;;;7.23;52.00
56241;BME280;42155;53.096;23.226;2024-03-06T10:14:36;100786.38;;;6.97;52.29
56241;BME280;42155;53.096;23.226;2024-03-06T10:16:36;100795.47;;;6.91;52.62
56241;BME280;42155;53.096;23.226;2024-03-06T10:18:37;100789.88;;;6.97;52.38
56241;BME280;42155;53.096;23.226;2024-03-06T10:20:37;100771.88;;;6.88;52.48
56241;BME280;42155;53.096;23.226;2024-03-06T10:22:37;100788.63;;;7.04;52.71
56241;BME280;42155;53.096;23.226;2024-03-06T10:24:39;100793.13;;;7.02;52.61
56241;BME280;42155;53.096;23.226;2024-03-06T10:26:39;100781.53;;;6.89;53.12
56241;BME280;42155;53.096;23.226;2024-03-06T10:28:44;100770.03;;;6.90;53.06
56241;BME280;42155;53.096;23.226;2024-03-06T10:30:45;100800.72;;;7.08;52.68